Metar Cercanos

 

LEPA - Palma De Mallorc, Spain
Distance from station: ONO 38km
Actualización: Sat, 10-Apr-2021 11:00pm CEST
Few Clouds
Few Clouds
 Viento del calm
Viento: Calma
Temperatura: 12°C
Rocío: 11°C
Humedad: 94%
Barómetro: 1014 hPa
Clouds: Few Clouds
Visibility: 7 km
Cloud details: Few Clouds 457 m
2021/04/10 21:00 LEPA 102100Z 00000KT 7000 FEW015 12/11 Q1014 NOSIG
LEMH - Mahon/Menorca Is, Spain
Distance from station: ENE 105km
Actualización: Sat, 10-Apr-2021 11:00pm CEST
Few Clouds
Few Clouds
 Viento del NNO
Viento: NNO 9 km/h
Temperatura: 12°C
Rocío: 11°C
Humedad: 94%
Barómetro: 1014 hPa
Clouds: Few Clouds
Visibility: 10 km
Cloud details: Few Clouds 518 m
2021/04/10 21:00 LEMH 102100Z 33005KT 9999 FEW017 12/11 Q1014
 
LEIB - Ibiza/Es Codola, Spain
Distance from station: OSO 165km
Actualización: Sat, 10-Apr-2021 11:00pm CEST
Few Clouds
Few Clouds
 Viento del NNO
Viento: NNO 6 km/h
Temperatura: 13°C
Rocío: 13°C
Humedad: 100%
Barómetro: 1014 hPa
Clouds: Few Clouds
Visibility: 10 km
Cloud details: Few Clouds 274 m
2021/04/10 21:00 LEIB 102100Z 33003KT 9999 FEW009 13/13 Q1014 NOSIG
LEBL - Barcelona Airpor, Spain
Distance from station: NNO 225km
Actualización: Sat, 10-Apr-2021 11:00pm CEST
Parcialmente nuboso
Parcialmente nuboso
 Viento del O
Viento: O 6 km/h
Temperatura: 12°C
Rocío: 11°C
Humedad: 94%
Barómetro: 1014 hPa
Clouds: Parcialmente nuboso
Visibility: 8 km
Cloud details: Parcialmente nuboso 549 m
2021/04/10 21:00 LEBL 102100Z 28003KT 8000 SCT018 12/11 Q1014 NOSIG
 
LEVC - Valencia (civ/Mi, Spain
Distance from station: NO 188km
Actualización: Sat, 10-Apr-2021 11:00pm CEST
Muy nuboso
Muy nuboso
 Viento del SE
Viento: SE 7 km/h
Temperatura: 14°C
Rocío: 12°C
Humedad: 88%
Barómetro: 1014 hPa
Clouds: Muy nuboso
Visibility: 10 km
Cloud details: Few Clouds 457 m
Muy nuboso 671 m
2021/04/10 21:00 LEVC 102100Z 13004KT 9999 FEW015 BKN022 14/12 Q1014 NOSIG
LEGE - Gerona/Costa Bra, Spain
Distance from station: N 276km
Actualización: Sat, 10-Apr-2021 11:00pm CEST
Mist, Cubierto
Mist, Cubierto
 Viento del SE
Viento: SE 6 km/h
Temperatura: 11°C
Rocío: 11°C
Humedad: 100%
Barómetro: 1013 hPa
Resumen: Mist
Clouds: Cubierto
Visibility: 5 km
Cloud details: Muy nuboso 91 m
Cubierto 1372 m
2021/04/10 21:00 LEGE 102100Z 14003KT 5000 BR BKN003 OVC045 11/11 Q1013
 
LEAL - Alicante/El Alte, Spain
Distance from station: OSO 344km
Actualización: Sat, 10-Apr-2021 11:00pm CEST
Muy nuboso
Muy nuboso
 Viento del calm
Viento: Calma
Temperatura: 15°C
Rocío: 13°C
Humedad: 88%
Barómetro: 1014 hPa
Clouds: Muy nuboso
Visibility: 10 km
Cloud details: Few Clouds 244 m
Muy nuboso 427 m
2021/04/10 21:00 LEAL 102100Z 00000KT 9999 FEW008 BKN014 15/13 Q1014 NOSIG
LEAM - Almeria Airport, Spain
Distance from station: SSO 56km
Actualización: Sat, 10-Apr-2021 11:00pm CEST
Muy nuboso
Muy nuboso
 Viento del OSO
Viento: OSO 9 km/h
Temperatura: 16°C
Rocío: 13°C
Humedad: 83%
Barómetro: 1014 hPa
Clouds: Muy nuboso
Visibility: 10 km
Cloud details: Muy nuboso 579 m
2021/04/10 21:00 LEAM 102100Z AUTO 25005KT 9999 BKN019 16/13 Q1014
 
LEZG - Zaragoza (mil/Ci, Spain
Distance from station: NO 431km
Actualización: Sat, 10-Apr-2021 11:00pm CEST
Few Clouds
Few Clouds
 Viento del E
Viento: E 11 km/h
Temperatura: 13°C
Rocío: 11°C
Humedad: 88%
Barómetro: 1012 hPa
Clouds: Few Clouds
Visibility: 10 km
Cloud details: Few Clouds 914 m
2021/04/10 21:00 LEZG 102100Z 10006KT 080V140 9999 FEW030 13/11 Q1012
LEMD - Madrid/Barajas, Spain
Distance from station: ONO 234km
Actualización: Sat, 10-Apr-2021 11:00pm CEST
Thunderstorm rain, Muy nuboso
Thunderstorm rain, Muy nuboso
 Viento del OSO
Viento: OSO 17 km/h
Temperatura: 11°C
Rocío: 9°C
Humedad: 88%
Barómetro: 1013 hPa
Resumen: Thunderstorm Rain
Clouds: Muy nuboso
Visibility: 7 km
Cloud details: Parcialmente nuboso 1067 m
Parcialmente nuboso 1372 m
Muy nuboso 1524 m
2021/04/10 21:00 LEMD 102100Z 24009KT 7000 TSRA SCT035 SCT045CB BKN050 11/09 Q1013 R88/29//95 NOSIG
 
LEGR - Granada Airport, Spain
Distance from station: OSO 62km
Actualización: Sat, 10-Apr-2021 11:00pm CEST
Few Clouds
Few Clouds
 Viento del SO
Viento: SO 9 km/h
Temperatura: 13°C
Rocío: 7°C
Humedad: 67%
Barómetro: 1014 hPa
Clouds: Few Clouds
Visibility: 10 km
Cloud details: Few Clouds 1524 m
Few Clouds 1676 m
2021/04/10 21:00 LEGR 102100Z 22005KT 9999 FEW050 FEW055CB 13/07 Q1014
LEMG - Malaga (civ/Mil), Spain
Distance from station: OSO 227km
Actualización: Sat, 10-Apr-2021 11:00pm CEST
Muy nuboso
Muy nuboso
 Viento del varies
Viento: varies 2 km/h
Temperatura: 16°C
Rocío: 14°C
Humedad: 88%
Barómetro: 1014 hPa
Clouds: Muy nuboso
Visibility: 10 km
Cloud details: Few Clouds 183 m
Muy nuboso 366 m
2021/04/10 21:00 LEMG 102100Z VRB01KT 9999 FEW006 BKN012 16/14 Q1014 NOSIG
 
LEZL - Sevilla (civ/Mil, Spain
Distance from station: S 318km
Actualización: Sat, 10-Apr-2021 11:00pm CEST
Few Clouds
Few Clouds
 Viento del SO
Viento: SO 13 km/h
Temperatura: 16°C
Rocío: 14°C
Humedad: 88%
Barómetro: 1014 hPa
Clouds: Few Clouds
Visibility: 10 km
Cloud details: Few Clouds 457 m
2021/04/10 21:00 LEZL 102100Z 22007KT 190V250 9999 FEW015 16/14 Q1014 NOSIG
LEVT - Vitoria, Spain
Distance from station: NO 226km
Actualización: Sat, 10-Apr-2021 11:00pm CEST
Muy nuboso
Muy nuboso
 Viento del varies
Viento: varies 2 km/h
Temperatura: 10°C
Rocío: 9°C
Humedad: 94%
Barómetro: 1012 hPa
Clouds: Muy nuboso
Visibility: 10 km
Cloud details: Muy nuboso 2042 m
2021/04/10 21:00 LEVT 102100Z VRB01KT 9999 BKN067 10/09 Q1012
 
LEBB - Bilbao/Sondica, Spain
Distance from station: NNO 235km
Actualización: Sat, 10-Apr-2021 11:00pm CEST
Lluvia débil, Parcialmente nuboso
Lluvia débil, Parcialmente nuboso
 Viento del varies
Viento: varies 4 km/h
Temperatura: 12°C
Rocío: 11°C
Humedad: 94%
Barómetro: 1012 hPa
Resumen: Lluvia débil
Clouds: Parcialmente nuboso
Visibility: 10 km
Cloud details: Parcialmente nuboso 762 m
Parcialmente nuboso 1219 m
2021/04/10 21:00 LEBB 102100Z VRB02KT 9999 -RA SCT025 SCT040 12/11 Q1012 TEMPO 3000 SHRA SCT030TCU
LESO - San Sebastian/Fu, Spain
Distance from station: N 231km
Actualización: Sat, 10-Apr-2021 11:00pm CEST
Muy nuboso
Muy nuboso
 Viento del OSO
Viento: OSO 9 km/h
Temperatura: 15°C
Rocío: 11°C
Humedad: 77%
Barómetro: 1012 hPa
Clouds: Muy nuboso
Visibility: 10 km
Cloud details: Few Clouds 457 m
Muy nuboso 1280 m
Muy nuboso 1524 m
2021/04/10 21:00 LESO 102100Z AUTO 24005KT 180V290 9999 FEW015 BKN042 BKN050 15/11 Q1012
 
LEVD - Valladolid(Mil/C, Spain
Distance from station: ONO 239km
Actualización: Sat, 10-Apr-2021 11:00pm CEST
Lluvia débil, Parcialmente nuboso
Lluvia débil, Parcialmente nuboso
 Viento del SO
Viento: SO 7 km/h
Temperatura: 9°C
Sensación frio: 8°C
Rocío: 8°C
Humedad: 94%
Barómetro: 1011 hPa
Resumen: Lluvia débil
Clouds: Parcialmente nuboso
Visibility: 10 km
2021/04/10 21:00 LEVD 102100Z AUTO 22004KT 9999 -RA NSC 09/08 Q1011
LESA - Salamanca (civ/M, Spain
Distance from station: ONO 349km
Actualización: Sat, 10-Apr-2021 11:00pm CEST
Parcialmente nuboso
Parcialmente nuboso
 Viento del OSO
Viento: OSO 13 km/h
Temperatura: 9°C
Sensación frio: 7°C
Rocío: 7°C
Humedad: 87%
Barómetro: 1012 hPa
Clouds: Parcialmente nuboso
Visibility: 10 km
Cloud details: Parcialmente nuboso 1402 m
2021/04/10 21:00 LESA 102100Z AUTO 25007KT 9999 SCT046 09/07 Q1012
 
LEXJ - Santander/Paraya, Spain
Distance from station: NNO 247km
Actualización: Sat, 10-Apr-2021 11:00pm CEST
Lluvia débil, Cubierto
Lluvia débil, Cubierto
 Viento del NNO
Viento: NNO 9 km/h
Temperatura: 13°C
Rocío: 13°C
Humedad: 100%
Barómetro: 1012 hPa
Resumen: Lluvia débil
Clouds: Cubierto
Visibility: 5 km
Cloud details: Parcialmente nuboso 640 m
Muy nuboso 823 m
Cubierto 1097 m
2021/04/10 21:00 LEXJ 102100Z 34005KT 300V020 5000 -RA SCT021 BKN027 OVC036 13/13 Q1012
LEAS - Asturias/Aviles, Spain
Distance from station: NO 214km
Actualización: Sat, 10-Apr-2021 11:00pm CEST
Lluvia débil, Muy nuboso
Lluvia débil, Muy nuboso
 Viento del NE
Viento: NE 7 km/h
Temperatura: 11°C
Rocío: 11°C
Humedad: 100%
Barómetro: 1013 hPa
Resumen: Lluvia débil
Clouds: Muy nuboso
Visibility: 3 km
Cloud details: Muy nuboso 61 m
2021/04/10 21:00 LEAS 102100Z 04004KT 330V110 3000 -RA BKN002 11/11 Q1013 NOSIG
 
LECO - La Coruna/Alvedr, Spain
Distance from station: ONO 222km
Actualización: Sat, 10-Apr-2021 11:00pm CEST
Muy nuboso
Muy nuboso
 Viento del NNE
Viento: NNE 15 km/h
Temperatura: 11°C
Rocío: 10°C
Humedad: 94%
Barómetro: 1014 hPa
Clouds: Muy nuboso
Visibility: 10 km
Cloud details: Muy nuboso 427 m
2021/04/10 21:00 LECO 102100Z 02008KT 330V070 9999 BKN014 11/10 Q1014 TEMPO RA
LEVX - Vigo/Peinador, Spain
Distance from station: O 214km
Actualización: Sat, 10-Apr-2021 11:00pm CEST
Muy nuboso
Muy nuboso
 Viento del NNE
Viento: NNE 7 km/h
Temperatura: 12°C
Rocío: 12°C
Humedad: 100%
Barómetro: 1012 hPa
Clouds: Muy nuboso
Visibility: 6 km
Cloud details: Muy nuboso 91 m
2021/04/10 21:00 LEVX 102100Z 02004KT 350V060 6000 BKN003 12/12 Q1012 NOSIG